Time;durP1;ratioP1;P1;durP2;ratioP2;P2;SDS_P1;SDS_P2;PMS_P1;PMS_P2;Temp;Humidity;BMP_temperature;BMP_pressure;BME280_temperature;BME280_humidity;BME280_pressure;Samples;Min_cycle;Max_cycle;Signal;HPM_P1;HPM_P2
2023/05/13 00:01:22;;;;;;;;;;;;;;;15.58;56.79;100864.00;4985187;28;7146;-76
2023/05/13 00:03:48;;;;;;;;;;;;;;;15.56;56.18;100870.84;4962052;28;7054;-76
2023/05/13 00:06:14;;;;;;;;;;;;;;;15.53;56.90;100870.72;4969715;28;6963;-76
2023/05/13 00:08:39;;;;;;;;;;;;;;;15.50;57.17;100868.94;4966668;28;8200;-76
2023/05/13 00:11:06;;;;;;;;;;;;;;;15.51;56.95;100872.38;4981081;28;7908;-76
2023/05/13 00:13:31;;;;;;;;;;;;;;;15.49;56.89;100874.03;4984424;28;6792;-76
2023/05/13 00:15:57;;;;;;;;;;;;;;;15.46;56.68;100873.94;4954376;28;6832;-76
2023/05/13 00:18:22;;;;;;;;;;;;;;;15.44;57.15;100868.69;4967439;28;6839;-76
2023/05/13 00:20:48;;;;;;;;;;;;;;;15.41;57.27;100873.75;4965124;28;7000;-76
2023/05/13 00:23:14;;;;;;;;;;;;;;;15.38;57.00;100868.47;4952346;28;6768;-76
2023/05/13 00:25:43;;;;;;;;;;;;;;;15.36;57.02;100868.44;4978448;28;6950;-76
2023/05/13 00:28:12;;;;;;;;;;;;;;;15.31;57.40;100864.78;4956752;28;7125;-76
2023/05/13 00:30:38;;;;;;;;;;;;;;;15.30;56.95;100868.19;4961548;28;6812;-76
2023/05/13 00:33:06;;;;;;;;;;;;;;;15.28;57.16;100859.53;4975213;28;6776;-76
2023/05/13 00:35:31;;;;;;;;;;;;;;;15.26;57.04;100867.22;4947756;28;7278;-78
2023/05/13 00:37:58;;;;;;;;;;;;;;;15.25;57.69;100861.97;4967440;28;7032;-76
2023/05/13 00:40:24;;;;;;;;;;;;;;;15.22;57.38;100860.19;4955591;28;6784;-76
2023/05/13 00:42:50;;;;;;;;;;;;;;;15.18;57.49;100854.84;4950293;28;6994;-76
2023/05/13 00:45:17;;;;;;;;;;;;;;;15.14;57.24;100851.28;4952769;28;6985;-76
2023/05/13 00:47:43;;;;;;;;;;;;;;;15.11;57.07;100853.72;4981952;28;6780;-76
2023/05/13 00:50:10;;;;;;;;;;;;;;;15.07;56.76;100867.34;4975592;28;6977;-76
2023/05/13 00:52:41;;;;;;;;;;;;;;;15.04;56.86;100864.66;4952794;28;6975;-77
2023/05/13 00:55:08;;;;;;;;;;;;;;;14.99;56.77;100864.50;4957884;28;8526;-76
2023/05/13 00:57:36;;;;;;;;;;;;;;;14.96;57.74;100861.78;4955763;28;6780;-77
2023/05/13 01:00:04;;;;;;;;;;;;;;;14.91;57.57;100863.31;4948833;28;7400;-76
2023/05/13 01:02:52;;;;;;;;;;;;;;;14.86;56.86;100863.16;4979115;28;7001;-76
2023/05/13 01:05:42;;;;;;;;;;;;;;;14.78;57.65;100873.19;4978237;28;7283;-78
2023/05/13 01:08:44;;;;;;;;;;;;;;;14.72;57.05;100870.34;4979029;28;7136;-78
2023/05/13 01:11:21;;;;;;;;;;;;;;;14.67;57.42;100859.84;4961346;28;6966;-79
2023/05/13 01:13:51;;;;;;;;;;;;;;;14.64;57.55;100862.31;4982199;28;7015;-79
2023/05/13 01:16:33;;;;;;;;;;;;;;;14.61;57.98;100869.03;4951244;28;7051;-79
2023/05/13 01:19:32;;;;;;;;;;;;;;;14.58;58.14;100867.22;4949291;28;6815;-79
2023/05/13 01:21:58;;;;;;;;;;;;;;;14.57;57.96;100865.47;4967032;28;6980;-78
2023/05/13 01:24:23;;;;;;;;;;;;;;;14.57;58.67;100866.31;4986349;28;6963;-78
2023/05/13 01:26:49;;;;;;;;;;;;;;;14.56;58.26;100868.88;4952799;28;6825;-78
2023/05/13 01:29:15;;;;;;;;;;;;;;;14.52;57.82;100865.28;4955498;28;6971;-78
2023/05/13 01:31:41;;;;;;;;;;;;;;;14.48;58.14;100868.53;4963232;28;7337;-78
2023/05/13 01:34:10;;;;;;;;;;;;;;;14.44;58.77;100866.69;4964599;28;6783;-79
2023/05/13 01:36:38;;;;;;;;;;;;;;;14.42;58.06;100873.47;4950866;28;7158;-78
2023/05/13 01:39:05;;;;;;;;;;;;;;;14.39;57.66;100869.06;4951887;28;6976;-79
2023/05/13 01:41:31;;;;;;;;;;;;;;;14.34;58.22;100875.75;4953070;28;6976;-78
2023/05/13 01:43:57;;;;;;;;;;;;;;;14.28;58.33;100881.53;4976792;28;6872;-79
2023/05/13 01:46:23;;;;;;;;;;;;;;;14.25;58.39;100875.38;4971517;28;6811;-78
2023/05/13 01:48:49;;;;;;;;;;;;;;;14.23;58.63;100874.41;4965915;28;6975;-79
2023/05/13 01:51:14;;;;;;;;;;;;;;;14.21;58.52;100883.78;4948677;28;7162;-79
2023/05/13 01:53:40;;;;;;;;;;;;;;;14.21;58.57;100879.53;4945950;28;6952;-78
2023/05/13 01:56:09;;;;;;;;;;;;;;;14.19;58.35;100877.72;4953810;28;7254;-78
2023/05/13 01:58:35;;;;;;;;;;;;;;;14.17;58.47;100875.06;4956996;28;7248;-78
2023/05/13 02:01:02;;;;;;;;;;;;;;;14.15;58.68;100871.53;4949948;28;6993;-79
2023/05/13 02:03:28;;;;;;;;;;;;;;;14.12;58.52;100871.44;4984564;28;8196;-79
2023/05/13 02:05:54;;;;;;;;;;;;;;;14.10;58.99;100866.19;4948713;28;7005;-79
2023/05/13 02:08:24;;;;;;;;;;;;;;;14.09;58.38;100868.69;4967999;28;6988;-79
2023/05/13 02:10:59;;;;;;;;;;;;;;;14.08;58.63;100869.53;4968121;28;6808;-79
2023/05/13 02:13:25;;;;;;;;;;;;;;;14.08;59.32;100862.69;4957468;28;7393;-79
2023/05/13 02:15:55;;;;;;;;;;;;;;;14.09;58.84;100869.59;4966125;28;7254;-79
2023/05/13 02:18:21;;;;;;;;;;;;;;;14.09;58.60;100866.13;4968143;28;8735;-78
2023/05/13 02:20:47;;;;;;;;;;;;;;;14.08;58.88;100872.09;4953101;28;6776;-79
2023/05/13 02:23:13;;;;;;;;;;;;;;;14.09;58.74;100869.59;4954458;28;8800;-79
2023/05/13 02:25:41;;;;;;;;;;;;;;;14.10;58.62;100867.88;4965531;28;6772;-79
2023/05/13 02:28:06;;;;;;;;;;;;;;;14.13;58.97;100875.75;4955983;28;6987;-79
2023/05/13 02:30:32;;;;;;;;;;;;;;;14.19;60.16;100869.97;4971244;28;6848;-79
2023/05/13 02:32:59;;;;;;;;;;;;;;;14.25;59.79;100876.25;4950551;28;6805;-79
2023/05/13 02:35:28;;;;;;;;;;;;;;;14.32;59.51;100867.06;4970724;28;6971;-79
2023/05/13 02:37:55;;;;;;;;;;;;;;;14.41;59.59;100871.72;4988814;28;7259;-79
2023/05/13 02:40:21;;;;;;;;;;;;;;;14.48;59.75;100865.09;4953301;28;7224;-78
2023/05/13 02:42:46;;;;;;;;;;;;;;;14.57;60.03;100863.75;4969419;28;7022;-78
2023/05/13 02:45:12;;;;;;;;;;;;;;;14.66;59.77;100868.41;4956771;28;6768;-76
2023/05/13 02:47:38;;;;;;;;;;;;;;;14.75;60.03;100872.19;4965326;28;7356;-76
2023/05/13 02:50:08;;;;;;;;;;;;;;;14.81;59.79;100859.50;4956016;28;7017;-76
2023/05/13 02:52:35;;;;;;;;;;;;;;;14.88;59.77;100864.09;4971278;28;6876;-76
2023/05/13 02:55:02;;;;;;;;;;;;;;;14.94;59.72;100863.44;4973451;28;7381;-77
2023/05/13 02:57:27;;;;;;;;;;;;;;;14.97;59.26;100864.44;4985928;28;7249;-77
2023/05/13 02:59:53;;;;;;;;;;;;;;;14.97;59.63;100858.41;4980660;28;6907;-76
2023/05/13 03:02:19;;;;;;;;;;;;;;;14.98;59.25;100858.44;4965851;28;6804;-77
2023/05/13 03:04:44;;;;;;;;;;;;;;;14.97;59.14;100858.41;4953297;28;7011;-77
2023/05/13 03:07:10;;;;;;;;;;;;;;;14.94;59.14;100848.84;4969842;28;6948;-77
2023/05/13 03:09:38;;;;;;;;;;;;;;;14.91;58.49;100855.59;4964523;28;6776;-77
2023/05/13 03:12:05;;;;;;;;;;;;;;;14.88;59.46;100853.75;4967938;28;6813;-77
2023/05/13 03:14:33;;;;;;;;;;;;;;;14.83;59.39;100848.44;4968482;28;7376;-77
2023/05/13 03:16:59;;;;;;;;;;;;;;;14.79;58.72;100854.31;4967858;28;7153;-77
2023/05/13 03:19:26;;;;;;;;;;;;;;;14.77;59.38;100861.09;4983645;28;6844;-77
2023/05/13 03:21:52;;;;;;;;;;;;;;;14.74;59.27;100866.13;4954093;28;8785;-77
2023/05/13 03:24:17;;;;;;;;;;;;;;;14.72;59.69;100862.59;4970749;28;6911;-77
2023/05/13 03:26:43;;;;;;;;;;;;;;;14.71;59.31;100866.00;4972147;28;7194;-77
2023/05/13 03:29:09;;;;;;;;;;;;;;;14.72;59.12;100865.19;4964389;28;7365;-76
2023/05/13 03:31:34;;;;;;;;;;;;;;;14.71;59.47;100863.41;4965194;28;6793;-77
2023/05/13 03:34:00;;;;;;;;;;;;;;;14.72;59.61;100862.59;4953658;28;6907;-77
2023/05/13 03:36:25;;;;;;;;;;;;;;;14.71;58.94;100866.00;4948708;28;7259;-77
2023/05/13 03:38:51;;;;;;;;;;;;;;;14.69;59.60;100868.50;4950980;28;7307;-77
2023/05/13 03:41:17;;;;;;;;;;;;;;;14.68;59.71;100871.91;4971381;28;6974;-77
2023/05/13 03:43:43;;;;;;;;;;;;;;;14.69;59.46;100867.66;4982113;28;7240;-77
2023/05/13 03:46:10;;;;;;;;;;;;;;;14.68;59.08;100866.75;4967612;28;6784;-77
2023/05/13 03:48:36;;;;;;;;;;;;;;;14.66;59.05;100873.56;4954691;28;7086;-77
2023/05/13 03:51:01;;;;;;;;;;;;;;;14.65;59.82;100876.06;4966590;28;7115;-77
2023/05/13 03:53:27;;;;;;;;;;;;;;;14.66;59.17;100875.25;4952079;28;6776;-76
2023/05/13 03:55:53;;;;;;;;;;;;;;;14.65;59.09;100864.06;4962933;28;6975;-76
2023/05/13 03:58:20;;;;;;;;;;;;;;;14.63;59.27;100872.56;4966305;28;7443;-77
2023/05/13 04:00:46;;;;;;;;;;;;;;;14.62;59.64;100875.97;4966398;28;6935;-76
2023/05/13 04:03:15;;;;;;;;;;;;;;;14.61;59.42;100874.22;4973888;28;7106;-77
2023/05/13 04:05:41;;;;;;;;;;;;;;;14.62;59.23;100875.97;4980806;28;7098;-77
2023/05/13 04:08:06;;;;;;;;;;;;;;;14.62;59.90;100870.81;4957875;28;7297;-76
2023/05/13 04:10:32;;;;;;;;;;;;;;;14.65;59.57;100876.06;4946610;28;6776;-76
2023/05/13 04:12:58;;;;;;;;;;;;;;;14.67;59.92;100871.84;4979852;28;6780;-77
2023/05/13 04:15:24;;;;;;;;;;;;;;;14.68;59.91;100871.06;4963829;28;6876;-76
2023/05/13 04:17:51;;;;;;;;;;;;;;;14.71;59.18;100876.31;4963979;28;6760;-76
2023/05/13 04:20:17;;;;;;;;;;;;;;;14.72;59.50;100878.06;4972029;28;8113;-76
2023/05/13 04:22:42;;;;;;;;;;;;;;;14.74;59.44;100867.84;4952047;28;8696;-75
2023/05/13 04:25:09;;;;;;;;;;;;;;;14.74;59.38;100871.31;4947891;28;7098;-76
2023/05/13 04:27:34;;;;;;;;;;;;;;;14.75;59.50;100869.63;4960468;28;7191;-76
2023/05/13 04:30:00;;;;;;;;;;;;;;;14.78;59.79;100875.78;4982002;28;7302;-75
2023/05/13 04:32:26;;;;;;;;;;;;;;;14.81;60.01;100873.31;4965352;28;6959;-75
2023/05/13 04:34:52;;;;;;;;;;;;;;;14.88;60.22;100887.31;4963574;28;6881;-78
2023/05/13 04:37:18;;;;;;;;;;;;;;;14.96;60.05;100887.59;4962641;28;8787;-78
2023/05/13 04:39:47;;;;;;;;;;;;;;;15.03;60.57;100884.44;4948747;28;6764;-78
2023/05/13 04:42:15;;;;;;;;;;;;;;;15.13;60.93;100881.38;4965225;28;6930;-78
2023/05/13 04:44:41;;;;;;;;;;;;;;;15.24;60.51;100886.94;4964834;28;6788;-78
2023/05/13 04:47:07;;;;;;;;;;;;;;;15.33;60.19;100888.09;4988696;28;6809;-78
2023/05/13 04:49:33;;;;;;;;;;;;;;;15.40;59.67;100888.38;4970524;28;7059;-79
2023/05/13 04:52:05;;;;;;;;;;;;;;;15.46;59.74;100892.00;4968700;28;6784;-79
2023/05/13 04:54:30;;;;;;;;;;;;;;;15.51;60.05;100893.94;4947146;28;7184;-78
2023/05/13 04:56:56;;;;;;;;;;;;;;;15.54;59.74;100887.97;4952882;28;7260;-81
2023/05/13 04:59:22;;;;;;;;;;;;;;;15.58;59.84;100895.00;4981528;28;7163;-80
2023/05/13 05:01:48;;;;;;;;;;;;;;;15.61;59.42;100886.50;4983431;28;7063;-80
2023/05/13 05:04:13;;;;;;;;;;;;;;;15.63;59.14;100892.59;4983398;28;8440;-81
2023/05/13 05:06:39;;;;;;;;;;;;;;;15.66;59.46;100893.59;4967163;28;6958;-81
2023/05/13 05:09:06;;;;;;;;;;;;;;;15.68;59.11;100893.63;4982826;28;7002;-83
2023/05/13 05:11:32;;;;;;;;;;;;;;;15.72;59.26;100892.91;4970717;28;6788;-80
2023/05/13 05:13:57;;;;;;;;;;;;;;;15.79;59.42;100899.16;4966796;28;8723;-81
2023/05/13 05:16:23;;;;;;;;;;;;;;;15.86;60.03;100901.16;4962511;28;6776;-81
2023/05/13 05:18:48;;;;;;;;;;;;;;;15.96;59.97;100899.78;4982526;28;6784;-81
2023/05/13 05:21:16;;;;;;;;;;;;;;;16.05;59.76;100902.66;4954101;28;6930;-81
2023/05/13 05:23:42;;;;;;;;;;;;;;;16.17;59.64;100904.78;4969057;28;6856;-79
2023/05/13 05:26:08;;;;;;;;;;;;;;;16.28;59.76;100910.34;4969737;28;6828;-81
2023/05/13 05:28:33;;;;;;;;;;;;;;;16.41;59.67;100909.00;4969849;28;8510;-80
2023/05/13 05:31:00;;;;;;;;;;;;;;;16.58;59.63;100913.84;4984595;28;8307;-81
2023/05/13 05:33:26;;;;;;;;;;;;;;;16.70;59.37;100903.84;4966573;28;8498;-82
2023/05/13 05:35:52;;;;;;;;;;;;;;;16.80;58.68;100907.63;4984071;28;7039;-79
2023/05/13 05:38:18;;;;;;;;;;;;;;;16.84;58.16;100913.78;4987815;28;6935;-78
2023/05/13 05:40:46;;;;;;;;;;;;;;;16.80;57.66;100918.88;4969512;28;6795;-76
2023/05/13 05:43:11;;;;;;;;;;;;;;;16.73;57.52;100914.31;4957227;28;7342;-81
2023/05/13 05:45:38;;;;;;;;;;;;;;;16.66;57.74;100918.44;4956623;28;6826;-81
2023/05/13 05:48:05;;;;;;;;;;;;;;;16.62;58.27;100918.28;4958516;28;7206;-81
2023/05/13 05:50:32;;;;;;;;;;;;;;;16.62;58.29;100920.88;4957847;28;6796;-80
2023/05/13 05:52:58;;;;;;;;;;;;;;;16.68;58.80;100925.38;4956632;28;6880;-80
2023/05/13 05:55:30;;;;;;;;;;;;;;;16.74;58.52;100925.53;4969689;28;6807;-81
2023/05/13 05:57:56;;;;;;;;;;;;;;;16.83;58.50;100922.38;4954085;28;6996;-77
2023/05/13 06:00:23;;;;;;;;;;;;;;;16.93;58.76;100922.69;4971275;28;7137;-76
2023/05/13 06:02:49;;;;;;;;;;;;;;;17.05;58.75;100921.34;4970324;28;6987;-78
2023/05/13 06:05:15;;;;;;;;;;;;;;;17.18;59.04;100914.78;4968796;28;6970;-79
2023/05/13 06:07:41;;;;;;;;;;;;;;;17.30;58.41;100917.75;4986261;28;8818;-78
2023/05/13 06:10:07;;;;;;;;;;;;;;;17.42;58.29;100924.13;4955772;28;6938;-79
2023/05/13 06:12:33;;;;;;;;;;;;;;;17.63;58.74;100921.25;4959458;28;7018;-80
2023/05/13 06:15:00;;;;;;;;;;;;;;;17.84;58.40;100920.94;4971430;28;6907;-80
2023/05/13 06:17:26;;;;;;;;;;;;;;;18.04;57.69;100924.09;4970804;28;6979;-78
2023/05/13 06:19:51;;;;;;;;;;;;;;;18.20;57.63;100921.84;4987169;28;6972;-78
2023/05/13 06:22:17;;;;;;;;;;;;;;;18.31;57.25;100922.13;4970337;28;6764;-78
2023/05/13 06:24:45;;;;;;;;;;;;;;;18.40;56.69;100919.75;4982316;28;7056;-78
2023/05/13 06:27:11;;;;;;;;;;;;;;;18.44;55.87;100918.13;4961527;28;7213;-77
2023/05/13 06:29:37;;;;;;;;;;;;;;;18.52;55.89;100923.50;4954622;28;6860;-75
2023/05/13 06:32:02;;;;;;;;;;;;;;;18.55;54.93;100915.78;4968130;28;6958;-76
2023/05/13 06:34:28;;;;;;;;;;;;;;;18.57;54.89;100921.88;4956759;28;6877;-77
2023/05/13 06:36:54;;;;;;;;;;;;;;;18.58;54.92;100921.03;4957200;28;6795;-78
2023/05/13 06:39:19;;;;;;;;;;;;;;;18.58;54.26;100913.25;4970183;28;7486;-78
2023/05/13 06:41:45;;;;;;;;;;;;;;;18.61;54.50;100915.91;4976034;28;7756;-80
2023/05/13 06:44:11;;;;;;;;;;;;;;;18.63;54.20;100913.38;4972838;28;7370;-75
2023/05/13 06:46:37;;;;;;;;;;;;;;;18.66;54.09;100916.91;4961777;28;6852;-75
2023/05/13 06:49:03;;;;;;;;;;;;;;;18.70;54.06;100920.47;4974414;28;6779;-79
2023/05/13 06:51:30;;;;;;;;;;;;;;;18.72;53.80;100917.03;4953974;28;6839;-78
2023/05/13 06:53:56;;;;;;;;;;;;;;;18.77;53.87;100913.69;4959962;28;6997;-78
2023/05/13 06:56:22;;;;;;;;;;;;;;;18.87;53.96;100918.22;4959561;28;7854;-78
2023/05/13 06:58:52;;;;;;;;;;;;;;;18.97;53.94;100914.09;4957038;28;6788;-79
2023/05/13 07:01:18;;;;;;;;;;;;;;;19.09;53.77;100914.41;4959010;28;6828;-74
2023/05/13 07:03:44;;;;;;;;;;;;;;;19.21;53.37;100924.16;4964276;28;6784;-74
2023/05/13 07:06:11;;;;;;;;;;;;;;;19.36;53.58;100925.34;4961674;28;6999;-72
2023/05/13 07:08:37;;;;;;;;;;;;;;;19.51;53.35;100929.97;4941817;28;9054;-71
2023/05/13 07:11:03;;;;;;;;;;;;;;;19.68;52.92;100927.69;4955382;28;6840;-72
2023/05/13 07:13:29;;;;;;;;;;;;;;;19.77;52.47;100927.84;4984089;28;6944;-72
2023/05/13 07:15:55;;;;;;;;;;;;;;;19.87;52.31;100936.72;4953244;28;7799;-72
2023/05/13 07:18:21;;;;;;;;;;;;;;;19.96;52.09;100933.41;4975587;28;8111;-75
2023/05/13 07:20:46;;;;;;;;;;;;;;;20.02;51.75;100933.53;4949328;28;7072;-74
2023/05/13 07:23:12;;;;;;;;;;;;;;;20.08;51.79;100941.44;4966696;28;6984;-73
2023/05/13 07:25:37;;;;;;;;;;;;;;;20.18;51.61;100941.59;4968957;28;7202;-73
2023/05/13 07:28:03;;;;;;;;;;;;;;;20.27;51.47;100946.94;4957042;28;8533;-72
2023/05/13 07:30:29;;;;;;;;;;;;;;;20.35;51.19;100940.16;4965973;28;6775;-72
2023/05/13 07:32:56;;;;;;;;;;;;;;;20.39;50.98;100941.97;4970891;28;7037;-73
2023/05/13 07:35:21;;;;;;;;;;;;;;;20.40;50.46;100948.03;4971664;28;6844;-73
2023/05/13 07:37:47;;;;;;;;;;;;;;;20.37;50.39;100943.66;4977929;28;8480;-72
2023/05/13 07:40:13;;;;;;;;;;;;;;;20.36;50.34;100935.84;4961463;28;7171;-75
2023/05/13 07:42:39;;;;;;;;;;;;;;;20.36;50.24;100949.72;4962401;28;6964;-73
2023/05/13 07:45:07;;;;;;;;;;;;;;;20.35;50.32;100942.75;4961459;28;7352;-74
2023/05/13 07:47:32;;;;;;;;;;;;;;;20.39;50.61;100939.38;4971127;28;8509;-76
2023/05/13 07:49:58;;;;;;;;;;;;;;;20.47;50.33;100939.47;4953683;28;6776;-74
2023/05/13 07:52:25;;;;;;;;;;;;;;;20.57;50.30;100937.91;4971515;28;6921;-73
2023/05/13 07:54:50;;;;;;;;;;;;;;;20.73;50.46;100930.31;4986677;28;6980;-74
2023/05/13 07:57:16;;;;;;;;;;;;;;;20.89;50.38;100932.31;4988574;28;6831;-71
2023/05/13 07:59:42;;;;;;;;;;;;;;;21.05;50.29;100941.22;4952327;28;8460;-73
2023/05/13 08:02:08;;;;;;;;;;;;;;;21.19;49.50;100951.81;4960975;28;7118;-73
2023/05/13 08:04:33;;;;;;;;;;;;;;;21.29;49.07;100947.56;4964159;28;8488;-76
2023/05/13 08:07:03;;;;;;;;;;;;;;;21.34;48.74;100945.03;4951153;28;7031;-74
2023/05/13 08:09:28;;;;;;;;;;;;;;;21.37;48.46;100945.09;4967406;28;6788;-75
2023/05/13 08:11:54;;;;;;;;;;;;;;;21.44;48.11;100946.03;4967411;28;6975;-76
2023/05/13 08:14:20;;;;;;;;;;;;;;;21.49;48.10;100945.22;4968462;28;7059;-74
2023/05/13 08:16:46;;;;;;;;;;;;;;;21.55;48.70;100941.81;4967313;28;6788;-74
2023/05/13 08:19:15;;;;;;;;;;;;;;;21.67;48.36;100943.72;4955192;28;6780;-74
2023/05/13 08:21:41;;;;;;;;;;;;;;;21.84;48.24;100945.63;4954031;28;6788;-73
2023/05/13 08:24:06;;;;;;;;;;;;;;;21.99;47.81;100940.53;4968363;28;7079;-73
2023/05/13 08:26:33;;;;;;;;;;;;;;;22.15;47.60;100936.31;4962068;28;6840;-75
2023/05/13 08:28:59;;;;;;;;;;;;;;;22.28;47.16;100932.09;4954427;28;6978;-75
2023/05/13 08:31:25;;;;;;;;;;;;;;;22.52;47.47;100938.41;4978777;28;6826;-76
2023/05/13 08:33:52;;;;;;;;;;;;;;;22.82;47.07;100931.63;4965492;28;6980;-73
2023/05/13 08:36:19;;;;;;;;;;;;;;;23.14;46.31;100928.28;4952824;28;6996;-73
2023/05/13 08:38:45;;;;;;;;;;;;;;;23.50;45.67;100927.56;4980365;28;7019;-76
2023/05/13 08:41:13;;;;;;;;;;;;;;;23.85;44.83;100918.91;4964358;28;7139;-77
2023/05/13 08:43:39;;;;;;;;;;;;;;;24.11;43.90;100921.59;4951334;28;8767;-74
2023/05/13 08:46:10;;;;;;;;;;;;;;;24.44;43.28;100926.81;4950062;28;6908;-74
2023/05/13 08:48:38;;;;;;;;;;;;;;;24.85;42.26;100924.13;4951140;28;6816;-73
2023/05/13 08:51:04;;;;;;;;;;;;;;;25.20;41.52;100925.72;4971010;28;7091;-77
2023/05/13 08:53:34;;;;;;;;;;;;;;;25.54;41.04;100933.47;4961790;28;6795;-75
2023/05/13 08:56:00;;;;;;;;;;;;;;;25.87;40.50;100931.50;4968382;28;6882;-74
2023/05/13 08:58:27;;;;;;;;;;;;;;;26.27;40.48;100932.06;4969809;28;6780;-75
2023/05/13 09:00:53;;;;;;;;;;;;;;;26.64;39.27;100923.84;4980064;28;8541;-78
2023/05/13 09:03:20;;;;;;;;;;;;;;;26.87;39.08;100923.59;4973534;28;7268;-76
2023/05/13 09:05:46;;;;;;;;;;;;;;;27.09;38.37;100918.13;4945042;28;7785;-76
2023/05/13 09:08:12;;;;;;;;;;;;;;;27.29;38.13;100915.19;4966005;28;6804;-76
2023/05/13 09:10:38;;;;;;;;;;;;;;;27.47;37.11;100920.22;4954215;28;7215;-76
2023/05/13 09:13:04;;;;;;;;;;;;;;;27.66;36.84;100919.09;4960918;28;6764;-76
2023/05/13 09:15:31;;;;;;;;;;;;;;;27.86;36.75;100915.28;4950641;28;7426;-76
2023/05/13 09:18:05;;;;;;;;;;;;;;;28.04;35.68;100916.75;4950146;28;6971;-76
2023/05/13 09:20:33;;;;;;;;;;;;;;;28.15;35.37;100916.56;4949492;28;7138;-76
2023/05/13 09:23:06;;;;;;;;;;;;;;;28.35;34.95;100913.59;4949015;28;6788;-77
2023/05/13 09:25:32;;;;;;;;;;;;;;;28.58;34.87;100914.94;4953130;28;6977;-76
2023/05/13 09:28:04;;;;;;;;;;;;;;;28.82;34.45;100910.09;4964141;28;6820;-74
2023/05/13 09:30:39;;;;;;;;;;;;;;;29.07;33.53;100906.94;4963800;28;7516;-75
2023/05/13 09:33:18;;;;;;;;;;;;;;;29.37;33.70;100902.78;4979051;28;6796;-75
2023/05/13 09:35:49;;;;;;;;;;;;;;;29.68;32.41;100897.72;4963933;28;6788;-75
2023/05/13 09:38:20;;;;;;;;;;;;;;;29.67;32.10;100907.44;4978468;28;8379;-75
2023/05/13 09:40:59;;;;;;;;;;;;;;;29.40;32.29;100907.13;4955706;28;6970;-75
2023/05/13 09:43:32;;;;;;;;;;;;;;;29.11;32.17;100898.09;4964650;28;6843;-75
2023/05/13 09:46:03;;;;;;;;;;;;;;;28.80;32.51;100901.34;4948211;28;7031;-75
2023/05/13 09:48:33;;;;;;;;;;;;;;;28.86;32.48;100901.22;4949750;28;6788;-77
2023/05/13 09:50:59;;;;;;;;;;;;;;;29.17;33.00;100897.97;4950087;28;10472;-77
2023/05/13 09:53:26;;;;;;;;;;;;;;;29.52;32.12;100903.38;4952506;28;7029;-76
2023/05/13 09:55:55;;;;;;;;;;;;;;;29.96;31.58;100897.91;4953663;28;6877;-76
2023/05/13 09:58:23;;;;;;;;;;;;;;;30.35;30.89;100900.44;4967823;28;7222;-77
2023/05/13 10:00:50;;;;;;;;;;;;;;;30.47;31.33;100899.25;4951664;28;7303;-75
2023/05/13 10:03:16;;;;;;;;;;;;;;;30.61;31.22;100893.59;4954469;28;6802;-76
2023/05/13 10:05:44;;;;;;;;;;;;;;;30.88;31.16;100898.16;4949594;28;8227;-76
2023/05/13 10:08:12;;;;;;;;;;;;;;;31.13;30.80;100886.81;4948729;28;6796;-75
2023/05/13 10:10:39;;;;;;;;;;;;;;;31.32;30.38;100887.16;4949659;28;6804;-76
2023/05/13 10:13:09;;;;;;;;;;;;;;;31.34;29.84;100882.66;4963288;28;6981;-76
2023/05/13 10:15:35;;;;;;;;;;;;;;;31.49;29.83;100885.75;4947600;28;6804;-75
2023/05/13 10:18:01;;;;;;;;;;;;;;;31.78;29.48;100873.34;4982418;28;6959;-76
2023/05/13 10:20:27;;;;;;;;;;;;;;;32.14;29.36;100879.19;4967307;28;6855;-75
2023/05/13 10:22:54;;;;;;;;;;;;;;;32.58;28.83;100868.84;4967276;28;6776;-76
2023/05/13 10:25:21;;;;;;;;;;;;;;;32.89;28.23;100868.53;4969553;28;6919;-76
2023/05/13 10:27:49;;;;;;;;;;;;;;;33.10;27.67;100877.47;4969785;28;6952;-75
2023/05/13 10:30:17;;;;;;;;;;;;;;;32.90;27.32;100864.09;4970781;28;6994;-75
2023/05/13 10:32:44;;;;;;;;;;;;;;;32.40;27.36;100865.94;4967949;28;7110;-75
2023/05/13 10:35:14;;;;;;;;;;;;;;;32.23;28.04;100859.41;4952285;28;6804;-75
2023/05/13 10:38:15;;;;;;;;;;;;;;;32.54;28.28;100860.13;4982548;28;6784;-75
2023/05/13 10:41:00;;;;;;;;;;;;;;;32.98;27.49;100856.72;4982503;28;7014;-75
2023/05/13 10:43:30;;;;;;;;;;;;;;;33.18;27.23;100855.06;4957564;28;7826;-75
2023/05/13 10:46:01;;;;;;;;;;;;;;;33.55;27.15;100856.25;4967047;28;6796;-75
2023/05/13 10:48:39;;;;;;;;;;;;;;;33.94;26.50;100851.97;4954302;28;6812;-75
2023/05/13 10:51:06;;;;;;;;;;;;;;;34.01;26.39;100858.78;4966074;28;6883;-75
2023/05/13 10:53:43;;;;;;;;;;;;;;;33.94;25.56;100851.97;4981916;28;6989;-75
2023/05/13 10:56:09;;;;;;;;;;;;;;;34.04;25.79;100853.34;4956321;28;7280;-75
2023/05/13 10:58:38;;;;;;;;;;;;;;;34.06;25.28;100850.59;4971795;28;6923;-75
2023/05/13 11:01:32;;;;;;;;;;;;;;;34.03;25.45;100848.94;4978153;28;6983;-76
2023/05/13 11:04:04;;;;;;;;;;;;;;;33.93;25.31;100850.22;4962373;28;7051;-76
2023/05/13 11:06:42;;;;;;;;;;;;;;;33.79;25.61;100837.53;4980941;28;7000;-76
2023/05/13 11:09:14;;;;;;;;;;;;;;;33.57;25.47;100842.94;4970592;28;7026;-76
2023/05/13 11:11:45;;;;;;;;;;;;;;;33.37;25.15;100841.94;4962042;28;7176;-75
2023/05/13 11:14:25;;;;;;;;;;;;;;;33.15;25.36;100844.59;4969935;28;7298;-76
2023/05/13 11:17:08;;;;;;;;;;;;;;;33.06;25.43;100836.06;4959485;28;6804;-75
2023/05/13 11:19:45;;;;;;;;;;;;;;;33.22;25.19;100832.75;4953047;28;8280;-75
2023/05/13 11:22:17;;;;;;;;;;;;;;;33.31;24.89;100826.22;4969495;28;7678;-75
2023/05/13 11:25:09;;;;;;;;;;;;;;;33.20;24.55;100830.19;4986189;28;6845;-75
2023/05/13 11:27:40;;;;;;;;;;;;;;;33.14;24.91;100813.66;4968305;28;7031;-75
2023/05/13 11:30:24;;;;;;;;;;;;;;;33.11;24.35;100820.78;4957746;28;7094;-76
2023/05/13 11:32:50;;;;;;;;;;;;;;;32.92;24.42;100811.84;4953187;28;11572;-76
2023/05/13 11:35:30;;;;;;;;;;;;;;;32.73;24.04;100814.34;4959058;28;6958;-76
2023/05/13 11:37:59;;;;;;;;;;;;;;;32.51;23.99;100812.50;4965646;28;7164;-75
2023/05/13 11:40:37;;;;;;;;;;;;;;;32.38;24.30;100809.44;4988356;28;6796;-75
2023/05/13 11:43:04;;;;;;;;;;;;;;;32.33;24.25;100806.06;4985404;28;7011;-75
2023/05/13 11:45:32;;;;;;;;;;;;;;;32.33;24.93;100803.41;4985359;28;7044;-78
2023/05/13 11:48:16;;;;;;;;;;;;;;;32.41;24.75;100804.91;4970336;28;7037;-75
2023/05/13 11:50:41;;;;;;;;;;;;;;;32.52;24.76;100795.66;4984736;28;7242;-78
2023/05/13 11:53:07;;;;;;;;;;;;;;;32.54;24.90;100799.97;4964082;28;6780;-76
2023/05/13 11:55:35;;;;;;;;;;;;;;;32.53;24.69;100805.34;4945992;28;6963;-75
2023/05/13 11:58:02;;;;;;;;;;;;;;;32.14;24.97;100806.72;4964091;28;7884;-75
2023/05/13 12:00:32;;;;;;;;;;;;;;;31.62;25.12;100806.72;4964366;28;7203;-77
2023/05/13 12:03:00;;;;;;;;;;;;;;;31.36;25.87;100805.84;4961556;28;7010;-80
2023/05/13 12:05:26;;;;;;;;;;;;;;;31.57;25.51;100801.59;4963431;28;6780;-76
2023/05/13 12:07:57;;;;;;;;;;;;;;;31.93;25.41;100803.06;4986747;28;6964;-81
2023/05/13 12:10:24;;;;;;;;;;;;;;;32.21;24.90;100800.28;4962098;28;6812;-80
2023/05/13 12:12:50;;;;;;;;;;;;;;;32.37;24.49;100797.13;4971506;28;6820;-79
2023/05/13 12:15:18;;;;;;;;;;;;;;;32.44;24.75;100803.03;4953063;28;6776;-79
2023/05/13 12:17:46;;;;;;;;;;;;;;;32.38;24.47;100809.44;4954036;28;6961;-78
2023/05/13 12:20:21;;;;;;;;;;;;;;;31.76;24.50;100806.25;4971805;28;6811;-76
2023/05/13 12:22:47;;;;;;;;;;;;;;;31.28;25.01;100800.78;4957403;28;6808;-80
2023/05/13 12:25:34;;;;;;;;;;;;;;;30.60;25.02;100801.91;4974842;28;7292;-75
2023/05/13 12:28:16;;;;;;;;;;;;;;;30.03;26.52;100804.34;4954525;28;6816;-79
2023/05/13 12:30:58;;;;;;;;;;;;;;;30.08;26.81;100804.25;4968801;28;6850;-77
2023/05/13 12:33:42;;;;;;;;;;;;;;;30.09;26.27;100807.78;4967486;28;6947;-79
2023/05/13 12:36:30;;;;;;;;;;;;;;;29.80;26.46;100812.91;4951571;28;7127;-76
2023/05/13 12:38:57;;;;;;;;;;;;;;;29.19;26.11;100810.84;4965991;28;7702;-79
2023/05/13 12:41:27;;;;;;;;;;;;;;;28.71;26.71;100825.06;4985546;28;7309;-79
2023/05/13 12:43:59;;;;;;;;;;;;;;;28.38;26.74;100813.38;4965343;28;7257;-77
2023/05/13 12:46:25;;;;;;;;;;;;;;;28.39;27.62;100804.63;4967899;28;7225;-78
2023/05/13 12:48:56;;;;;;;;;;;;;;;28.38;27.42;100823.94;4967495;28;7170;-78
2023/05/13 12:51:23;;;;;;;;;;;;;;;28.23;27.94;100819.81;4975475;28;6964;-76
2023/05/13 12:53:48;;;;;;;;;;;;;;;28.00;27.96;100818.47;4955785;28;6923;-75